sensor_id;sensor_type;location;lat;lon;timestamp;pressure;altitude;pressure_sealevel;temperature;humidity
40872;BME280;26591;43.264;26.940;2023-05-12T00:00:45;99509.47;;;10.81;68.51
40872;BME280;26591;43.264;26.940;2023-05-12T00:03:12;99507.78;;;10.80;68.60
40872;BME280;26591;43.264;26.940;2023-05-12T00:05:37;99504.00;;;10.83;68.70
40872;BME280;26591;43.264;26.940;2023-05-12T00:08:03;99517.34;;;10.73;68.57
40872;BME280;26591;43.264;26.940;2023-05-12T00:10:28;99506.09;;;10.71;69.20
40872;BME280;26591;43.264;26.940;2023-05-12T00:12:54;99509.09;;;10.76;68.92
40872;BME280;26591;43.264;26.940;2023-05-12T00:15:20;99508.06;;;10.69;69.23
40872;BME280;26591;43.264;26.940;2023-05-12T00:17:45;99513.03;;;10.72;68.88
40872;BME280;26591;43.264;26.940;2023-05-12T00:20:11;99509.41;;;10.73;69.41
40872;BME280;26591;43.264;26.940;2023-05-12T00:22:38;99504.16;;;10.81;68.84
40872;BME280;26591;43.264;26.940;2023-05-12T00:25:04;99506.59;;;10.75;69.43
40872;BME280;26591;43.264;26.940;2023-05-12T00:27:30;99505.53;;;10.67;69.25
40872;BME280;26591;43.264;26.940;2023-05-12T00:29:56;99507.22;;;10.68;69.47
40872;BME280;26591;43.264;26.940;2023-05-12T00:32:23;99508.97;;;10.60;69.95
40872;BME280;26591;43.264;26.940;2023-05-12T00:34:49;99501.19;;;10.58;69.96
40872;BME280;26591;43.264;26.940;2023-05-12T00:37:15;99502.84;;;10.59;69.78
40872;BME280;26591;43.264;26.940;2023-05-12T00:39:41;99493.88;;;10.34;70.72
40872;BME280;26591;43.264;26.940;2023-05-12T00:42:06;99505.59;;;10.49;70.73
40872;BME280;26591;43.264;26.940;2023-05-12T00:44:32;99507.56;;;10.47;70.83
40872;BME280;26591;43.264;26.940;2023-05-12T00:46:58;99498.19;;;10.35;70.97
40872;BME280;26591;43.264;26.940;2023-05-12T00:49:25;99505.97;;;10.36;70.93
40872;BME280;26591;43.264;26.940;2023-05-12T00:55:09;99512.94;;;10.19;71.61
40872;BME280;26591;43.264;26.940;2023-05-12T00:57:35;99507.63;;;10.19;72.61
40872;BME280;26591;43.264;26.940;2023-05-12T01:00:01;99511.97;;;10.02;73.51
40872;BME280;26591;43.264;26.940;2023-05-12T01:02:27;99513.84;;;10.10;73.04
40872;BME280;26591;43.264;26.940;2023-05-12T01:04:53;99510.75;;;9.97;73.73
40872;BME280;26591;43.264;26.940;2023-05-12T01:07:21;99511.66;;;10.05;73.77
40872;BME280;26591;43.264;26.940;2023-05-12T01:09:47;99515.75;;;9.72;73.79
40872;BME280;26591;43.264;26.940;2023-05-12T01:12:13;99512.03;;;9.92;74.34
40872;BME280;26591;43.264;26.940;2023-05-12T01:14:39;99506.56;;;9.94;73.95
40872;BME280;26591;43.264;26.940;2023-05-12T01:17:10;99504.84;;;9.67;74.97
40872;BME280;26591;43.264;26.940;2023-05-12T01:22:07;99501.38;;;9.84;74.94
40872;BME280;26591;43.264;26.940;2023-05-12T01:24:37;99506.81;;;10.01;74.36
40872;BME280;26591;43.264;26.940;2023-05-12T01:27:06;99503.56;;;10.07;73.73
40872;BME280;26591;43.264;26.940;2023-05-12T01:29:34;99508.56;;;10.10;73.44
40872;BME280;26591;43.264;26.940;2023-05-12T01:32:00;99505.28;;;10.16;73.30
40872;BME280;26591;43.264;26.940;2023-05-12T01:34:45;99505.81;;;10.02;73.33
40872;BME280;26591;43.264;26.940;2023-05-12T01:37:11;99507.13;;;10.16;73.16
40872;BME280;26591;43.264;26.940;2023-05-12T01:39:37;99508.56;;;10.10;72.98
40872;BME280;26591;43.264;26.940;2023-05-12T01:42:03;99503.63;;;10.15;72.91
40872;BME280;26591;43.264;26.940;2023-05-12T01:44:29;99502.28;;;10.11;73.13
40872;BME280;26591;43.264;26.940;2023-05-12T01:46:55;99506.22;;;10.07;73.06
40872;BME280;26591;43.264;26.940;2023-05-12T01:49:20;99501.91;;;10.06;72.99
40872;BME280;26591;43.264;26.940;2023-05-12T01:51:46;99494.34;;;10.11;73.26
40872;BME280;26591;43.264;26.940;2023-05-12T01:54:12;99496.09;;;10.02;73.66
40872;BME280;26591;43.264;26.940;2023-05-12T01:56:37;99498.66;;;9.94;73.25
40872;BME280;26591;43.264;26.940;2023-05-12T01:59:03;99494.28;;;9.85;74.28
40872;BME280;26591;43.264;26.940;2023-05-12T02:01:28;99497.81;;;9.93;74.31
40872;BME280;26591;43.264;26.940;2023-05-12T02:03:54;99496.63;;;10.06;74.04
40872;BME280;26591;43.264;26.940;2023-05-12T02:06:20;99497.88;;;10.02;74.00
40872;BME280;26591;43.264;26.940;2023-05-12T02:08:46;99495.16;;;10.12;73.49
40872;BME280;26591;43.264;26.940;2023-05-12T02:11:12;99496.47;;;9.89;74.07
40872;BME280;26591;43.264;26.940;2023-05-12T02:13:37;99497.66;;;9.77;74.46
40872;BME280;26591;43.264;26.940;2023-05-12T02:16:03;99492.59;;;9.66;75.50
40872;BME280;26591;43.264;26.940;2023-05-12T02:18:29;99491.44;;;9.68;75.17
40872;BME280;26591;43.264;26.940;2023-05-12T02:20:57;99494.44;;;9.83;75.16
40872;BME280;26591;43.264;26.940;2023-05-12T02:23:22;99497.66;;;9.77;75.54
40872;BME280;26591;43.264;26.940;2023-05-12T02:25:48;99495.19;;;9.75;75.21
40872;BME280;26591;43.264;26.940;2023-05-12T02:28:13;99495.78;;;9.87;75.03
40872;BME280;26591;43.264;26.940;2023-05-12T02:30:44;99492.59;;;9.84;75.47
40872;BME280;26591;43.264;26.940;2023-05-12T02:33:10;99495.31;;;9.74;75.47
40872;BME280;26591;43.264;26.940;2023-05-12T02:35:35;99491.16;;;9.89;75.78
40872;BME280;26591;43.264;26.940;2023-05-12T02:38:01;99492.53;;;9.93;75.00
40872;BME280;26591;43.264;26.940;2023-05-12T02:40:26;99493.06;;;9.79;75.45
40872;BME280;26591;43.264;26.940;2023-05-12T02:42:52;99485.72;;;9.73;75.22
40872;BME280;26591;43.264;26.940;2023-05-12T02:45:17;99500.81;;;9.62;75.36
40872;BME280;26591;43.264;26.940;2023-05-12T02:47:43;99493.03;;;9.61;75.59
40872;BME280;26591;43.264;26.940;2023-05-12T02:50:09;99494.56;;;9.64;76.11
40872;BME280;26591;43.264;26.940;2023-05-12T02:52:34;99496.28;;;9.73;76.15
40872;BME280;26591;43.264;26.940;2023-05-12T02:54:59;99495.31;;;9.74;76.35
40872;BME280;26591;43.264;26.940;2023-05-12T02:57:25;99501.97;;;9.78;75.41
40872;BME280;26591;43.264;26.940;2023-05-12T02:59:57;99496.97;;;9.57;76.46
40872;BME280;26591;43.264;26.940;2023-05-12T03:02:22;99498.34;;;9.61;76.55
40872;BME280;26591;43.264;26.940;2023-05-12T03:04:48;99497.13;;;9.73;76.97
40872;BME280;26591;43.264;26.940;2023-05-12T03:07:13;99505.06;;;9.73;76.81
40872;BME280;26591;43.264;26.940;2023-05-12T03:09:39;99505.66;;;9.67;76.95
40872;BME280;26591;43.264;26.940;2023-05-12T03:12:04;99505.13;;;9.64;77.37
40872;BME280;26591;43.264;26.940;2023-05-12T03:14:30;99505.22;;;9.44;77.46
40872;BME280;26591;43.264;26.940;2023-05-12T03:16:58;99509.19;;;9.58;77.72
40872;BME280;26591;43.264;26.940;2023-05-12T03:19:24;99500.81;;;9.62;76.94
40872;BME280;26591;43.264;26.940;2023-05-12T03:21:49;99507.38;;;9.58;77.32
40872;BME280;26591;43.264;26.940;2023-05-12T03:24:15;99505.97;;;9.82;76.92
40872;BME280;26591;43.264;26.940;2023-05-12T03:26:40;99504.31;;;9.81;77.03
40872;BME280;26591;43.264;26.940;2023-05-12T03:29:06;99511.97;;;9.84;76.92
40872;BME280;26591;43.264;26.940;2023-05-12T03:31:32;99509.44;;;10.01;77.02
40872;BME280;26591;43.264;26.940;2023-05-12T03:33:58;99513.47;;;10.05;76.67
40872;BME280;26591;43.264;26.940;2023-05-12T03:36:23;99515.59;;;10.01;77.11
40872;BME280;26591;43.264;26.940;2023-05-12T03:38:48;99515.13;;;10.06;76.70
40872;BME280;26591;43.264;26.940;2023-05-12T03:41:15;99518.13;;;9.93;77.34
40872;BME280;26591;43.264;26.940;2023-05-12T03:43:41;99514.31;;;10.05;77.10
40872;BME280;26591;43.264;26.940;2023-05-12T03:46:06;99518.22;;;10.19;77.18
40872;BME280;26591;43.264;26.940;2023-05-12T03:48:32;99523.28;;;10.13;77.11
40872;BME280;26591;43.264;26.940;2023-05-12T03:50:57;99521.31;;;10.15;76.86
40872;BME280;26591;43.264;26.940;2023-05-12T03:53:23;99520.31;;;10.34;76.71
40872;BME280;26591;43.264;26.940;2023-05-12T03:55:48;99523.91;;;10.43;76.98
40872;BME280;26591;43.264;26.940;2023-05-12T03:58:14;99527.69;;;10.40;76.81
40872;BME280;26591;43.264;26.940;2023-05-12T04:00:39;99523.66;;;10.54;76.48
40872;BME280;26591;43.264;26.940;2023-05-12T04:03:05;99520.63;;;10.67;76.25
40872;BME280;26591;43.264;26.940;2023-05-12T04:05:30;99527.06;;;10.64;76.64
40872;BME280;26591;43.264;26.940;2023-05-12T04:07:55;99533.28;;;10.81;76.50
40872;BME280;26591;43.264;26.940;2023-05-12T04:10:21;99531.72;;;10.97;75.31
40872;BME280;26591;43.264;26.940;2023-05-12T04:12:46;99540.69;;;11.04;75.25
40872;BME280;26591;43.264;26.940;2023-05-12T04:15:12;99549.53;;;11.13;75.15
40872;BME280;26591;43.264;26.940;2023-05-12T04:17:39;99540.53;;;11.32;74.88
40872;BME280;26591;43.264;26.940;2023-05-12T04:20:06;99543.53;;;11.11;74.46
40872;BME280;26591;43.264;26.940;2023-05-12T04:22:31;99538.38;;;11.36;73.85
40872;BME280;26591;43.264;26.940;2023-05-12T04:24:57;99549.66;;;11.38;73.56
40872;BME280;26591;43.264;26.940;2023-05-12T04:27:23;99545.28;;;11.28;73.41
40872;BME280;26591;43.264;26.940;2023-05-12T04:29:48;99548.91;;;11.62;72.79
40872;BME280;26591;43.264;26.940;2023-05-12T04:32:14;99551.53;;;11.54;72.23
40872;BME280;26591;43.264;26.940;2023-05-12T04:34:39;99544.69;;;11.43;72.61
40872;BME280;26591;43.264;26.940;2023-05-12T04:37:04;99543.66;;;11.70;74.09
40872;BME280;26591;43.264;26.940;2023-05-12T04:39:30;99551.41;;;11.64;72.23
40872;BME280;26591;43.264;26.940;2023-05-12T04:41:55;99544.50;;;11.79;71.42
40872;BME280;26591;43.264;26.940;2023-05-12T04:44:21;99547.84;;;11.89;71.27
40872;BME280;26591;43.264;26.940;2023-05-12T04:46:47;99549.69;;;11.97;70.55
40872;BME280;26591;43.264;26.940;2023-05-12T04:49:13;99554.69;;;12.00;70.16
40872;BME280;26591;43.264;26.940;2023-05-12T04:51:39;99547.47;;;11.76;70.20
40872;BME280;26591;43.264;26.940;2023-05-12T04:54:09;99549.06;;;11.52;71.44
40872;BME280;26591;43.264;26.940;2023-05-12T04:56:35;99547.34;;;11.86;71.18
40872;BME280;26591;43.264;26.940;2023-05-12T04:59:01;99548.34;;;11.93;70.46
40872;BME280;26591;43.264;26.940;2023-05-12T05:01:26;99549.69;;;11.97;70.91
40872;BME280;26591;43.264;26.940;2023-05-12T05:03:52;99547.34;;;11.86;70.83
40872;BME280;26591;43.264;26.940;2023-05-12T05:06:17;99547.56;;;12.01;70.56
40872;BME280;26591;43.264;26.940;2023-05-12T05:08:43;99544.22;;;11.99;70.30
40872;BME280;26591;43.264;26.940;2023-05-12T05:11:08;99547.25;;;12.20;70.06
40872;BME280;26591;43.264;26.940;2023-05-12T05:13:34;99555.25;;;12.37;70.01
40872;BME280;26591;43.264;26.940;2023-05-12T05:15:59;99551.59;;;12.46;68.99
40872;BME280;26591;43.264;26.940;2023-05-12T05:18:26;99547.59;;;12.59;68.36
40872;BME280;26591;43.264;26.940;2023-05-12T05:20:51;99545.78;;;12.51;68.56
40872;BME280;26591;43.264;26.940;2023-05-12T05:23:17;99553.09;;;12.74;68.26
40872;BME280;26591;43.264;26.940;2023-05-12T05:25:42;99554.22;;;12.79;67.22
40872;BME280;26591;43.264;26.940;2023-05-12T05:28:08;99550.91;;;12.86;66.99
40872;BME280;26591;43.264;26.940;2023-05-12T05:30:34;99550.06;;;13.02;66.45
40872;BME280;26591;43.264;26.940;2023-05-12T05:33:00;99547.22;;;13.03;65.67
40872;BME280;26591;43.264;26.940;2023-05-12T05:35:25;99554.38;;;13.03;66.18
40872;BME280;26591;43.264;26.940;2023-05-12T05:37:51;99547.72;;;12.98;65.86
40872;BME280;26591;43.264;26.940;2023-05-12T05:40:18;99562.53;;;13.01;65.90
40872;BME280;26591;43.264;26.940;2023-05-12T05:42:44;99555.88;;;12.97;65.77
40872;BME280;26591;43.264;26.940;2023-05-12T05:45:10;99557.69;;;13.05;65.52
40872;BME280;26591;43.264;26.940;2023-05-12T05:47:36;99565.09;;;13.18;65.64
40872;BME280;26591;43.264;26.940;2023-05-12T05:50:02;99563.25;;;13.35;64.54
40872;BME280;26591;43.264;26.940;2023-05-12T05:52:28;99561.41;;;13.35;64.30
40872;BME280;26591;43.264;26.940;2023-05-12T05:54:54;99565.91;;;13.43;64.22
40872;BME280;26591;43.264;26.940;2023-05-12T05:57:19;99566.63;;;13.68;63.52
40872;BME280;26591;43.264;26.940;2023-05-12T05:59:45;99570.69;;;13.87;62.29
40872;BME280;26591;43.264;26.940;2023-05-12T06:02:10;99570.53;;;13.89;62.57
40872;BME280;26591;43.264;26.940;2023-05-12T06:04:36;99575.50;;;13.92;63.14
40872;BME280;26591;43.264;26.940;2023-05-12T06:07:01;99573.75;;;14.31;62.14
40872;BME280;26591;43.264;26.940;2023-05-12T06:09:28;99570.16;;;14.47;60.73
40872;BME280;26591;43.264;26.940;2023-05-12T06:11:53;99575.66;;;14.69;60.45
40872;BME280;26591;43.264;26.940;2023-05-12T06:14:19;99572.88;;;15.00;60.55
40872;BME280;26591;43.264;26.940;2023-05-12T06:16:44;99575.75;;;15.29;59.08
40872;BME280;26591;43.264;26.940;2023-05-12T06:19:10;99570.97;;;15.54;57.79
40872;BME280;26591;43.264;26.940;2023-05-12T06:21:36;99565.25;;;15.87;57.93
40872;BME280;26591;43.264;26.940;2023-05-12T06:24:02;99567.06;;;16.23;56.58
40872;BME280;26591;43.264;26.940;2023-05-12T06:26:27;99573.16;;;16.39;56.49
40872;BME280;26591;43.264;26.940;2023-05-12T06:28:53;99572.69;;;16.57;55.64
40872;BME280;26591;43.264;26.940;2023-05-12T06:31:18;99571.03;;;16.56;52.91
40872;BME280;26591;43.264;26.940;2023-05-12T06:33:44;99572.75;;;16.63;51.88
40872;BME280;26591;43.264;26.940;2023-05-12T06:36:09;99575.78;;;16.82;51.08
40872;BME280;26591;43.264;26.940;2023-05-12T06:38:36;99569.75;;;16.95;51.56
40872;BME280;26591;43.264;26.940;2023-05-12T06:41:01;99569.84;;;17.08;50.40
40872;BME280;26591;43.264;26.940;2023-05-12T06:43:27;99578.34;;;16.90;51.50
40872;BME280;26591;43.264;26.940;2023-05-12T06:45:53;99577.19;;;17.00;51.99
40872;BME280;26591;43.264;26.940;2023-05-12T06:48:18;99581.47;;;16.72;52.09
40872;BME280;26591;43.264;26.940;2023-05-12T06:50:50;99583.00;;;16.82;51.53
40872;BME280;26591;43.264;26.940;2023-05-12T06:53:16;99586.56;;;16.45;52.03
40872;BME280;26591;43.264;26.940;2023-05-12T06:55:41;99588.66;;;16.50;51.33
40872;BME280;26591;43.264;26.940;2023-05-12T06:58:08;99577.22;;;15.46;53.03
40872;BME280;26591;43.264;26.940;2023-05-12T07:00:34;99582.16;;;15.04;54.09
40872;BME280;26591;43.264;26.940;2023-05-12T07:02:59;99583.84;;;15.50;53.93
40872;BME280;26591;43.264;26.940;2023-05-12T07:05:25;99577.84;;;15.03;53.01
40872;BME280;26591;43.264;26.940;2023-05-12T07:07:51;99578.72;;;15.34;53.31
40872;BME280;26591;43.264;26.940;2023-05-12T07:10:16;99577.72;;;16.01;51.91
40872;BME280;26591;43.264;26.940;2023-05-12T07:12:42;99580.31;;;16.31;51.08
40872;BME280;26591;43.264;26.940;2023-05-12T07:15:07;99577.88;;;16.37;50.72
40872;BME280;26591;43.264;26.940;2023-05-12T07:17:33;99582.44;;;16.65;51.00
40872;BME280;26591;43.264;26.940;2023-05-12T07:19:59;99574.53;;;16.78;51.51
40872;BME280;26591;43.264;26.940;2023-05-12T07:22:25;99584.44;;;15.97;49.79
40872;BME280;26591;43.264;26.940;2023-05-12T07:24:51;99587.06;;;15.46;51.13
40872;BME280;26591;43.264;26.940;2023-05-12T07:27:17;99588.69;;;15.17;52.55
40872;BME280;26591;43.264;26.940;2023-05-12T07:29:42;99588.97;;;14.69;52.83
40872;BME280;26591;43.264;26.940;2023-05-12T07:32:08;99576.00;;;14.42;53.69
40872;BME280;26591;43.264;26.940;2023-05-12T07:34:33;99581.16;;;15.05;52.82
40872;BME280;26591;43.264;26.940;2023-05-12T07:36:59;99588.72;;;15.47;52.46
40872;BME280;26591;43.264;26.940;2023-05-12T07:39:28;99588.69;;;15.77;52.58
40872;BME280;26591;43.264;26.940;2023-05-12T07:41:56;99592.34;;;16.06;50.89
40872;BME280;26591;43.264;26.940;2023-05-12T07:44:23;99590.28;;;15.86;50.35
40872;BME280;26591;43.264;26.940;2023-05-12T07:46:48;99587.72;;;16.14;50.18
40872;BME280;26591;43.264;26.940;2023-05-12T07:49:14;99578.75;;;16.22;49.56
40872;BME280;26591;43.264;26.940;2023-05-12T07:51:39;99582.28;;;15.41;51.33
40872;BME280;26591;43.264;26.940;2023-05-12T07:54:05;99580.34;;;15.65;51.96
40872;BME280;26591;43.264;26.940;2023-05-12T07:56:31;99583.19;;;15.78;50.11
40872;BME280;26591;43.264;26.940;2023-05-12T07:58:57;99577.91;;;16.00;49.54
40872;BME280;26591;43.264;26.940;2023-05-12T08:01:23;99582.09;;;15.28;51.70
40872;BME280;26591;43.264;26.940;2023-05-12T08:03:50;99586.09;;;15.98;49.77
40872;BME280;26591;43.264;26.940;2023-05-12T08:06:16;99573.09;;;15.44;48.88
40872;BME280;26591;43.264;26.940;2023-05-12T08:08:42;99596.44;;;15.56;48.19
40872;BME280;26591;43.264;26.940;2023-05-12T08:11:08;99581.34;;;15.04;49.28
40872;BME280;26591;43.264;26.940;2023-05-12T08:13:35;99580.03;;;14.85;49.51
40872;BME280;26591;43.264;26.940;2023-05-12T08:16:03;99578.72;;;14.80;49.13
40872;BME280;26591;43.264;26.940;2023-05-12T08:18:28;99581.00;;;14.69;50.58
40872;BME280;26591;43.264;26.940;2023-05-12T08:20:54;99583.09;;;14.50;51.94
40872;BME280;26591;43.264;26.940;2023-05-12T08:23:20;99570.56;;;14.35;51.31
40872;BME280;26591;43.264;26.940;2023-05-12T08:25:45;99575.31;;;14.48;50.80
40872;BME280;26591;43.264;26.940;2023-05-12T08:28:13;99575.09;;;14.27;51.73
40872;BME280;26591;43.264;26.940;2023-05-12T08:30:39;99582.31;;;14.88;51.87
40872;BME280;26591;43.264;26.940;2023-05-12T08:33:05;99581.16;;;15.05;51.80
40872;BME280;26591;43.264;26.940;2023-05-12T08:35:31;99595.88;;;15.16;50.47
40872;BME280;26591;43.264;26.940;2023-05-12T08:37:56;99581.50;;;14.87;50.65
40872;BME280;26591;43.264;26.940;2023-05-12T08:43:36;99580.19;;;14.83;51.89
40872;BME280;26591;43.264;26.940;2023-05-12T08:46:04;99570.09;;;14.93;51.33
40872;BME280;26591;43.264;26.940;2023-05-12T08:48:32;99567.06;;;14.97;51.13
40872;BME280;26591;43.264;26.940;2023-05-12T08:50:59;99566.53;;;15.01;51.06
40872;BME280;26591;43.264;26.940;2023-05-12T08:53:26;99568.84;;;14.66;51.15
40872;BME280;26591;43.264;26.940;2023-05-12T08:55:54;99556.63;;;14.95;51.20
40872;BME280;26591;43.264;26.940;2023-05-12T08:58:20;99561.38;;;15.00;51.44
40872;BME280;26591;43.264;26.940;2023-05-12T09:00:46;99569.13;;;15.39;51.91
40872;BME280;26591;43.264;26.940;2023-05-12T09:03:12;99571.13;;;15.22;50.92
40872;BME280;26591;43.264;26.940;2023-05-12T09:05:42;99572.66;;;14.87;52.22
40872;BME280;26591;43.264;26.940;2023-05-12T09:08:09;99586.50;;;15.35;50.32
40872;BME280;26591;43.264;26.940;2023-05-12T09:10:35;99576.19;;;15.32;49.48
40872;BME280;26591;43.264;26.940;2023-05-12T09:13:19;99564.63;;;15.25;49.38
40872;BME280;26591;43.264;26.940;2023-05-12T09:15:47;99570.22;;;15.45;49.50
40872;BME280;26591;43.264;26.940;2023-05-12T09:18:13;99574.34;;;15.48;49.93
40872;BME280;26591;43.264;26.940;2023-05-12T09:20:39;99560.00;;;14.89;49.96
40872;BME280;26591;43.264;26.940;2023-05-12T09:23:15;99575.56;;;15.30;49.92
40872;BME280;26591;43.264;26.940;2023-05-12T09:25:41;99566.84;;;14.45;51.09
40872;BME280;26591;43.264;26.940;2023-05-12T09:28:07;99564.41;;;14.35;51.42
40872;BME280;26591;43.264;26.940;2023-05-12T09:30:32;99558.88;;;14.68;51.34
40872;BME280;26591;43.264;26.940;2023-05-12T09:33:10;99558.59;;;14.78;50.44
40872;BME280;26591;43.264;26.940;2023-05-12T09:35:40;99562.19;;;14.70;50.65
40872;BME280;26591;43.264;26.940;2023-05-12T09:38:10;99551.69;;;14.69;50.86
40872;BME280;26591;43.264;26.940;2023-05-12T09:40:36;99547.56;;;14.81;50.73
40872;BME280;26591;43.264;26.940;2023-05-12T09:43:05;99548.63;;;15.10;50.61
40872;BME280;26591;43.264;26.940;2023-05-12T09:45:35;99558.41;;;14.79;51.59
40872;BME280;26591;43.264;26.940;2023-05-12T09:48:08;99550.63;;;14.93;50.20
40872;BME280;26591;43.264;26.940;2023-05-12T09:50:41;99560.28;;;15.09;50.44
40872;BME280;26591;43.264;26.940;2023-05-12T09:53:08;99547.41;;;14.83;50.47
40872;BME280;26591;43.264;26.940;2023-05-12T09:55:35;99543.28;;;15.55;49.56
40872;BME280;26591;43.264;26.940;2023-05-12T09:58:01;99552.41;;;15.82;49.36
40872;BME280;26591;43.264;26.940;2023-05-12T10:00:29;99542.94;;;15.80;48.36
40872;BME280;26591;43.264;26.940;2023-05-12T10:02:54;99547.44;;;15.94;49.14
40872;BME280;26591;43.264;26.940;2023-05-12T10:05:21;99551.19;;;16.00;48.88
40872;BME280;26591;43.264;26.940;2023-05-12T10:07:48;99564.59;;;15.85;49.80
40872;BME280;26591;43.264;26.940;2023-05-12T10:10:19;99554.34;;;15.74;49.24
40872;BME280;26591;43.264;26.940;2023-05-12T10:12:46;99551.56;;;15.97;48.84
40872;BME280;26591;43.264;26.940;2023-05-12T10:15:12;99549.06;;;16.32;48.20
40872;BME280;26591;43.264;26.940;2023-05-12T10:17:38;99548.47;;;15.93;45.75
40872;BME280;26591;43.264;26.940;2023-05-12T10:20:06;99544.31;;;15.76;47.70
40872;BME280;26591;43.264;26.940;2023-05-12T10:22:37;99546.00;;;15.92;47.63
40872;BME280;26591;43.264;26.940;2023-05-12T10:25:05;99539.94;;;16.48;47.35
40872;BME280;26591;43.264;26.940;2023-05-12T10:27:32;99548.31;;;16.88;46.08
40872;BME280;26591;43.264;26.940;2023-05-12T10:29:58;99540.25;;;16.31;47.63
40872;BME280;26591;43.264;26.940;2023-05-12T10:32:25;99549.69;;;16.34;46.99
40872;BME280;26591;43.264;26.940;2023-05-12T10:34:52;99535.09;;;16.08;47.58
40872;BME280;26591;43.264;26.940;2023-05-12T10:37:18;99532.88;;;15.97;47.51
40872;BME280;26591;43.264;26.940;2023-05-12T10:39:48;99540.59;;;16.07;47.14
40872;BME280;26591;43.264;26.940;2023-05-12T10:42:16;99533.47;;;15.92;48.24
40872;BME280;26591;43.264;26.940;2023-05-12T10:44:49;99538.28;;;16.04;46.10
40872;BME280;26591;43.264;26.940;2023-05-12T10:47:15;99541.59;;;16.06;45.80
40872;BME280;26591;43.264;26.940;2023-05-12T10:49:41;99526.22;;;16.08;46.14
40872;BME280;26591;43.264;26.940;2023-05-12T10:52:09;99523.69;;;16.21;45.12
40872;BME280;26591;43.264;26.940;2023-05-12T10:54:40;99515.34;;;16.53;45.86
40872;BME280;26591;43.264;26.940;2023-05-12T10:57:12;99522.50;;;16.74;44.38
40872;BME280;26591;43.264;26.940;2023-05-12T10:59:49;99524.94;;;16.97;44.53
40872;BME280;26591;43.264;26.940;2023-05-12T11:02:21;99533.25;;;16.30;44.25
40872;BME280;26591;43.264;26.940;2023-05-12T11:07:19;99526.59;;;16.05;43.64
40872;BME280;26591;43.264;26.940;2023-05-12T11:09:46;99521.13;;;16.56;43.21
40872;BME280;26591;43.264;26.940;2023-05-12T11:12:12;99519.91;;;16.59;42.85
40872;BME280;26591;43.264;26.940;2023-05-12T11:14:40;99524.44;;;16.58;42.80
40872;BME280;26591;43.264;26.940;2023-05-12T11:17:07;99521.50;;;16.53;41.73
40872;BME280;26591;43.264;26.940;2023-05-12T11:19:44;99526.09;;;17.16;41.60
40872;BME280;26591;43.264;26.940;2023-05-12T11:22:16;99522.94;;;17.48;40.42
40872;BME280;26591;43.264;26.940;2023-05-12T11:24:44;99517.16;;;17.02;39.92
40872;BME280;26591;43.264;26.940;2023-05-12T11:27:14;99519.06;;;17.15;39.72
40872;BME280;26591;43.264;26.940;2023-05-12T11:29:41;99515.75;;;16.85;41.30
40872;BME280;26591;43.264;26.940;2023-05-12T11:32:10;99510.28;;;16.65;41.77
40872;BME280;26591;43.264;26.940;2023-05-12T11:34:37;99510.38;;;16.50;40.76
40872;BME280;26591;43.264;26.940;2023-05-12T11:37:04;99508.69;;;16.20;41.31
40872;BME280;26591;43.264;26.940;2023-05-12T11:39:31;99519.03;;;16.30;41.38
40872;BME280;26591;43.264;26.940;2023-05-12T11:42:06;99516.47;;;16.15;41.60
40872;BME280;26591;43.264;26.940;2023-05-12T11:44:35;99521.38;;;16.18;41.29
40872;BME280;26591;43.264;26.940;2023-05-12T11:47:14;99508.06;;;15.96;41.16
40872;BME280;26591;43.264;26.940;2023-05-12T11:52:14;99507.91;;;16.05;42.75
40872;BME280;26591;43.264;26.940;2023-05-12T11:54:56;99518.34;;;16.43;42.25
40872;BME280;26591;43.264;26.940;2023-05-12T11:57:34;99517.31;;;16.22;42.46
40872;BME280;26591;43.264;26.940;2023-05-12T12:00:06;99541.56;;;16.21;43.36
40872;BME280;26591;43.264;26.940;2023-05-12T12:02:33;99524.81;;;16.33;42.05
40872;BME280;26591;43.264;26.940;2023-05-12T12:05:00;99528.38;;;16.19;42.28
40872;BME280;26591;43.264;26.940;2023-05-12T12:07:33;99519.81;;;16.02;43.52
40872;BME280;26591;43.264;26.940;2023-05-12T12:10:12;99523.69;;;15.99;41.75
40872;BME280;26591;43.264;26.940;2023-05-12T12:12:39;99513.00;;;16.21;41.65
40872;BME280;26591;43.264;26.940;2023-05-12T12:15:05;99508.41;;;16.37;41.35
40872;BME280;26591;43.264;26.940;2023-05-12T12:17:31;99519.69;;;16.54;42.03
40872;BME280;26591;43.264;26.940;2023-05-12T12:19:57;99510.28;;;16.36;40.56
40872;BME280;26591;43.264;26.940;2023-05-12T12:22:23;99519.47;;;16.33;41.73
40872;BME280;26591;43.264;26.940;2023-05-12T12:24:48;99518.94;;;16.38;41.44
40872;BME280;26591;43.264;26.940;2023-05-12T12:27:14;99513.69;;;16.30;41.27
40872;BME280;26591;43.264;26.940;2023-05-12T12:29:39;99511.81;;;16.02;42.22
40872;BME280;26591;43.264;26.940;2023-05-12T12:32:05;99531.44;;;16.38;42.10
40872;BME280;26591;43.264;26.940;2023-05-12T12:34:30;99520.25;;;16.27;41.66
40872;BME280;26591;43.264;26.940;2023-05-12T12:36:56;99519.91;;;16.59;41.63
40872;BME280;26591;43.264;26.940;2023-05-12T12:39:22;99526.88;;;15.88;41.64
40872;BME280;26591;43.264;26.940;2023-05-12T12:41:47;99522.88;;;15.84;42.37
40872;BME280;26591;43.264;26.940;2023-05-12T12:44:13;99515.69;;;16.21;41.71
40872;BME280;26591;43.264;26.940;2023-05-12T12:46:39;99514.13;;;16.55;41.28
40872;BME280;26591;43.264;26.940;2023-05-12T12:49:04;99507.75;;;16.56;41.25
40872;BME280;26591;43.264;26.940;2023-05-12T12:51:30;99510.31;;;16.71;40.76
40872;BME280;26591;43.264;26.940;2023-05-12T12:53:57;99501.16;;;16.52;40.63
40872;BME280;26591;43.264;26.940;2023-05-12T12:56:22;99510.84;;;16.31;41.50
40872;BME280;26591;43.264;26.940;2023-05-12T12:58:49;99497.03;;;16.50;41.14
40872;BME280;26591;43.264;26.940;2023-05-12T13:01:15;99499.84;;;16.70;40.50